createdAt,value
2023-05-21T00:00:36.600Z,994.05
2023-05-21T00:01:36.566Z,994.05
2023-05-21T00:02:36.632Z,994.03
2023-05-21T00:03:36.638Z,994.11
2023-05-21T00:04:36.532Z,994.01
2023-05-21T00:05:36.741Z,994.06
2023-05-21T00:06:36.615Z,993.99
2023-05-21T00:07:36.498Z,994.11
2023-05-21T00:08:36.496Z,994.10
2023-05-21T00:09:36.514Z,994.03
2023-05-21T00:10:36.492Z,994.06
2023-05-21T00:11:36.463Z,994.03
2023-05-21T00:12:36.452Z,993.99
2023-05-21T00:13:36.435Z,994.04
2023-05-21T00:14:36.449Z,994.05
2023-05-21T00:15:36.624Z,994.00
2023-05-21T00:16:36.485Z,994.06
2023-05-21T00:17:36.420Z,994.01
2023-05-21T00:18:36.391Z,993.98
2023-05-21T00:19:36.402Z,994.05
2023-05-21T00:20:36.373Z,993.96
2023-05-21T00:21:36.362Z,994.00
2023-05-21T00:22:36.404Z,993.98
2023-05-21T00:23:36.363Z,994.02
2023-05-21T00:24:36.356Z,993.97
2023-05-21T00:25:36.493Z,993.97
2023-05-21T00:26:36.316Z,993.81
2023-05-21T00:27:36.297Z,993.89
2023-05-21T00:28:36.308Z,993.89
2023-05-21T00:29:36.283Z,993.83
2023-05-21T00:30:36.271Z,993.85
2023-05-21T00:31:36.279Z,993.81
2023-05-21T00:32:36.267Z,993.75
2023-05-21T00:33:36.264Z,993.81
2023-05-21T00:34:36.232Z,993.82
2023-05-21T00:35:36.371Z,993.84
2023-05-21T00:36:36.220Z,993.79
2023-05-21T00:37:36.233Z,993.77
2023-05-21T00:38:36.228Z,993.75
2023-05-21T00:39:36.178Z,993.79
2023-05-21T00:40:36.182Z,993.74
2023-05-21T00:41:36.173Z,993.73
2023-05-21T00:42:36.198Z,993.71
2023-05-21T00:43:36.145Z,993.68
2023-05-21T00:44:36.131Z,993.62
2023-05-21T00:45:36.324Z,993.67
2023-05-21T00:46:36.123Z,993.72
2023-05-21T00:47:36.176Z,993.65
2023-05-21T00:48:36.101Z,993.71
2023-05-21T00:49:36.081Z,993.66
2023-05-21T00:50:36.073Z,993.63
2023-05-21T00:51:36.090Z,993.68
2023-05-21T00:52:36.063Z,993.65
2023-05-21T00:53:36.042Z,993.65
2023-05-21T00:54:36.034Z,993.63
2023-05-21T00:55:36.209Z,993.68
2023-05-21T00:56:36.035Z,993.60
2023-05-21T00:57:35.998Z,993.63
2023-05-21T00:58:35.997Z,993.60
2023-05-21T00:59:35.988Z,993.57
2023-05-21T01:00:35.976Z,993.57
2023-05-21T01:01:35.992Z,993.58
2023-05-21T01:02:36.037Z,993.64
2023-05-21T01:03:35.979Z,993.61
2023-05-21T01:04:35.932Z,993.60
2023-05-21T01:05:36.065Z,993.66
2023-05-21T01:06:35.927Z,993.60
2023-05-21T01:07:35.906Z,993.56
2023-05-21T01:08:36.884Z,993.54
2023-05-21T01:09:35.879Z,993.51
2023-05-21T01:10:35.902Z,993.54
2023-05-21T01:11:35.898Z,993.53
2023-05-21T01:12:35.846Z,993.53
2023-05-21T01:13:35.861Z,993.53
2023-05-21T01:14:35.831Z,993.51
2023-05-21T01:15:35.997Z,993.49
2023-05-21T01:16:35.849Z,993.47
2023-05-21T01:17:35.867Z,993.53
2023-05-21T01:18:35.820Z,993.43
2023-05-21T01:19:35.881Z,993.47
2023-05-21T01:20:35.781Z,993.47
2023-05-21T01:21:35.760Z,993.45
2023-05-21T01:22:35.751Z,993.44
2023-05-21T01:23:35.750Z,993.38
2023-05-21T01:24:35.783Z,993.40
2023-05-21T01:25:35.978Z,993.35
2023-05-21T01:26:35.695Z,993.38
2023-05-21T01:27:35.694Z,993.36
2023-05-21T01:28:35.681Z,993.38
2023-05-21T01:29:35.696Z,993.38
2023-05-21T01:30:35.661Z,993.32
2023-05-21T01:31:35.649Z,993.42
2023-05-21T01:32:35.706Z,993.37
2023-05-21T01:33:35.709Z,993.38
2023-05-21T01:34:35.864Z,993.37
2023-05-21T01:35:35.888Z,993.36
2023-05-21T01:36:35.602Z,993.29
2023-05-21T01:37:35.607Z,993.32
2023-05-21T01:38:35.597Z,993.31
2023-05-21T01:39:35.609Z,993.35
2023-05-21T01:40:35.600Z,993.29
2023-05-21T01:41:35.564Z,993.28
2023-05-21T01:42:35.541Z,993.24
2023-05-21T01:43:35.699Z,993.31
2023-05-21T01:44:35.533Z,993.27
2023-05-21T01:45:35.765Z,993.27
2023-05-21T01:46:35.562Z,993.28
2023-05-21T01:47:35.521Z,993.29
2023-05-21T01:48:35.520Z,993.33
2023-05-21T01:49:35.487Z,993.32
2023-05-21T01:50:35.488Z,993.34
2023-05-21T01:51:35.464Z,993.34
2023-05-21T01:52:35.457Z,993.35
2023-05-21T01:53:35.450Z,993.31
2023-05-21T01:54:35.429Z,993.35
2023-05-21T01:55:35.517Z,993.33
2023-05-21T01:56:35.454Z,993.36
2023-05-21T01:57:35.428Z,993.36
2023-05-21T01:58:35.398Z,993.33
2023-05-21T01:59:35.384Z,993.31
2023-05-21T02:00:35.361Z,993.27
2023-05-21T02:01:35.403Z,993.27
2023-05-21T02:02:35.428Z,993.36
2023-05-21T02:03:35.397Z,993.26
2023-05-21T02:04:35.354Z,993.25
2023-05-21T02:05:35.748Z,993.24
2023-05-21T02:06:35.329Z,993.19
2023-05-21T02:07:35.314Z,993.22
2023-05-21T02:08:35.336Z,993.24
2023-05-21T02:09:35.298Z,993.21
2023-05-21T02:10:35.262Z,993.24
2023-05-21T02:11:35.291Z,993.28
2023-05-21T02:12:35.242Z,993.22
2023-05-21T02:13:35.234Z,993.25
2023-05-21T02:14:35.229Z,993.28
2023-05-21T02:15:35.664Z,993.21
2023-05-21T02:16:35.270Z,993.25
2023-05-21T02:17:35.206Z,993.16
2023-05-21T02:18:35.181Z,993.16
2023-05-21T02:19:35.285Z,993.24
2023-05-21T02:20:35.180Z,993.16
2023-05-21T02:21:35.156Z,993.20
2023-05-21T02:22:35.197Z,993.23
2023-05-21T02:23:35.156Z,993.21
2023-05-21T02:24:35.123Z,993.18
2023-05-21T02:25:35.295Z,993.22
2023-05-21T02:26:35.103Z,993.22
2023-05-21T02:27:35.129Z,993.26
2023-05-21T02:28:35.088Z,993.21
2023-05-21T02:29:35.079Z,993.21
2023-05-21T02:30:35.070Z,993.24
2023-05-21T02:31:35.057Z,993.18
2023-05-21T02:32:35.155Z,993.16
2023-05-21T02:33:38.266Z,993.18
2023-05-21T02:35:07.004Z,993.15
2023-05-21T02:35:35.319Z,993.20
2023-05-21T02:36:35.014Z,993.11
2023-05-21T02:37:35.076Z,993.22
2023-05-21T02:38:34.991Z,993.18
2023-05-21T02:39:34.992Z,993.18
2023-05-21T02:40:34.982Z,993.23
2023-05-21T02:41:34.959Z,993.15
2023-05-21T02:42:34.947Z,993.17
2023-05-21T02:43:34.947Z,993.16
2023-05-21T02:44:34.965Z,993.12
2023-05-21T02:45:35.286Z,993.09
2023-05-21T02:46:34.928Z,993.20
2023-05-21T02:47:34.953Z,993.14
2023-05-21T02:48:34.907Z,993.20
2023-05-21T02:49:34.877Z,993.18
2023-05-21T02:50:34.871Z,993.22
2023-05-21T02:51:34.895Z,993.21
2023-05-21T02:52:35.845Z,993.20
2023-05-21T02:53:34.857Z,993.27
2023-05-21T02:54:34.831Z,993.20
2023-05-21T02:55:35.204Z,993.19
2023-05-21T02:56:34.816Z,993.15
2023-05-21T02:57:34.784Z,993.20
2023-05-21T02:58:34.785Z,993.19
2023-05-21T02:59:34.769Z,993.15
2023-05-21T03:00:34.822Z,993.17
2023-05-21T03:01:34.792Z,993.18
2023-05-21T03:02:34.841Z,993.19
2023-05-21T03:03:34.888Z,993.19
2023-05-21T03:04:34.723Z,993.16
2023-05-21T03:05:34.803Z,993.14
2023-05-21T03:06:34.705Z,993.13
2023-05-21T03:07:34.731Z,993.10
2023-05-21T03:08:34.681Z,993.05
2023-05-21T03:09:34.685Z,993.06
2023-05-21T03:10:34.663Z,993.14
2023-05-21T03:11:34.649Z,993.06
2023-05-21T03:12:34.672Z,993.14
2023-05-21T03:13:34.732Z,993.11
2023-05-21T03:14:34.624Z,993.11
2023-05-21T03:15:34.726Z,993.10
2023-05-21T03:16:34.797Z,993.10
2023-05-21T03:17:34.672Z,993.04
2023-05-21T03:18:34.583Z,993.08
2023-05-21T03:19:34.588Z,993.05
2023-05-21T03:20:34.572Z,993.04
2023-05-21T03:21:34.574Z,993.13
2023-05-21T03:22:34.541Z,993.09
2023-05-21T03:23:34.527Z,993.06
2023-05-21T03:24:34.513Z,993.10
2023-05-21T03:25:34.725Z,993.04
2023-05-21T03:26:35.515Z,993.09
2023-05-21T03:27:34.502Z,993.09
2023-05-21T03:28:34.478Z,993.11
2023-05-21T03:29:34.467Z,993.10
2023-05-21T03:30:34.490Z,993.16
2023-05-21T03:31:34.515Z,993.11
2023-05-21T03:32:34.468Z,993.14
2023-05-21T03:33:34.437Z,993.10
2023-05-21T03:34:34.506Z,993.13
2023-05-21T03:35:34.711Z,993.17
2023-05-21T03:36:34.409Z,993.11
2023-05-21T03:37:34.395Z,993.11
2023-05-21T03:38:36.526Z,993.10
2023-05-21T03:39:34.365Z,993.13
2023-05-21T03:40:34.378Z,993.12
2023-05-21T03:41:34.360Z,993.16
2023-05-21T03:42:34.372Z,993.18
2023-05-21T03:43:34.358Z,993.14
2023-05-21T03:44:34.365Z,993.17
2023-05-21T03:45:34.476Z,993.18
2023-05-21T03:46:34.364Z,993.16
2023-05-21T03:47:34.309Z,993.21
2023-05-21T03:48:34.279Z,993.15
2023-05-21T03:49:34.291Z,993.18
2023-05-21T03:50:34.263Z,993.21
2023-05-21T03:51:34.247Z,993.17
2023-05-21T03:52:34.239Z,993.20
2023-05-21T03:53:34.250Z,993.26
2023-05-21T03:54:34.238Z,993.20
2023-05-21T03:55:34.316Z,993.16
2023-05-21T03:56:34.201Z,993.22
2023-05-21T03:57:34.218Z,993.14
2023-05-21T03:58:35.194Z,993.21
2023-05-21T03:59:34.173Z,993.19
2023-05-21T04:00:34.159Z,993.21
2023-05-21T04:01:34.163Z,993.24
2023-05-21T04:02:34.233Z,993.19
2023-05-21T04:03:34.239Z,993.22
2023-05-21T04:04:34.148Z,993.24
2023-05-21T04:05:34.287Z,993.24
2023-05-21T04:06:34.108Z,993.19
2023-05-21T04:07:34.149Z,993.17
2023-05-21T04:08:34.104Z,993.19
2023-05-21T04:09:36.002Z,993.17
2023-05-21T04:10:34.063Z,993.21
2023-05-21T04:11:34.049Z,993.21
2023-05-21T04:12:34.064Z,993.23
2023-05-21T04:13:34.041Z,993.24
2023-05-21T04:14:34.034Z,993.30
2023-05-21T04:15:34.186Z,993.22
2023-05-21T04:16:34.105Z,993.26
2023-05-21T04:17:34.056Z,993.30
2023-05-21T04:18:33.985Z,993.38
2023-05-21T04:19:34.018Z,993.30
2023-05-21T04:20:33.994Z,993.31
2023-05-21T04:21:33.982Z,993.34
2023-05-21T04:22:33.959Z,993.39
2023-05-21T04:23:33.931Z,993.36
2023-05-21T04:24:33.931Z,993.28
2023-05-21T04:25:34.218Z,993.30
2023-05-21T04:26:33.940Z,993.22
2023-05-21T04:27:33.899Z,993.29
2023-05-21T04:28:33.892Z,993.28
2023-05-21T04:29:33.875Z,993.28
2023-05-21T04:30:33.884Z,993.23
2023-05-21T04:31:33.884Z,993.24
2023-05-21T04:32:33.872Z,993.26
2023-05-21T04:33:33.835Z,993.22
2023-05-21T04:34:33.820Z,993.21
2023-05-21T04:35:33.958Z,993.23
2023-05-21T04:36:33.826Z,993.22
2023-05-21T04:37:33.809Z,993.22
2023-05-21T04:38:33.786Z,993.21
2023-05-21T04:39:33.795Z,993.25
2023-05-21T04:40:33.808Z,993.27
2023-05-21T04:41:33.780Z,993.29
2023-05-21T04:42:33.746Z,993.30
2023-05-21T04:43:33.728Z,993.25
2023-05-21T04:44:33.739Z,993.24
2023-05-21T04:45:34.022Z,993.32
2023-05-21T04:46:33.794Z,993.29
2023-05-21T04:47:33.777Z,993.27
2023-05-21T04:48:33.700Z,993.32
2023-05-21T04:49:33.705Z,993.29
2023-05-21T04:50:33.684Z,993.32
2023-05-21T04:51:33.667Z,993.24
2023-05-21T04:52:33.645Z,993.21
2023-05-21T04:53:33.634Z,993.28
2023-05-21T04:54:33.644Z,993.22
2023-05-21T04:55:33.642Z,993.26
2023-05-21T04:56:33.607Z,993.24
2023-05-21T04:57:33.595Z,993.25
2023-05-21T04:58:33.592Z,993.18
2023-05-21T04:59:33.591Z,993.19
2023-05-21T05:00:33.627Z,993.19
2023-05-21T05:01:33.553Z,993.16
2023-05-21T05:02:33.610Z,993.18
2023-05-21T05:03:33.604Z,993.13
2023-05-21T05:04:33.545Z,993.12
2023-05-21T05:05:33.523Z,993.18
2023-05-21T05:06:33.510Z,993.19
2023-05-21T05:07:33.493Z,993.14
2023-05-21T05:08:33.516Z,993.15
2023-05-21T05:09:33.480Z,993.11
2023-05-21T05:10:33.475Z,993.14
2023-05-21T05:11:33.453Z,993.09
2023-05-21T05:12:33.455Z,993.05
2023-05-21T05:13:33.462Z,993.07
2023-05-21T05:14:33.434Z,993.07
2023-05-21T05:15:33.457Z,993.11
2023-05-21T05:16:33.429Z,993.08
2023-05-21T05:17:33.416Z,993.11
2023-05-21T05:18:33.405Z,993.09
2023-05-21T05:19:33.455Z,993.05
2023-05-21T05:20:33.360Z,993.06
2023-05-21T05:21:33.348Z,993.02
2023-05-21T05:22:33.361Z,993.09
2023-05-21T05:23:33.358Z,993.08
2023-05-21T05:24:33.344Z,993.00
2023-05-21T05:25:33.326Z,993.04
2023-05-21T05:26:33.309Z,992.96
2023-05-21T05:27:33.324Z,992.94
2023-05-21T05:28:33.287Z,992.95
2023-05-21T05:29:33.275Z,992.98
2023-05-21T05:30:33.290Z,993.00
2023-05-21T05:31:33.389Z,992.93
2023-05-21T05:32:33.297Z,992.99
2023-05-21T05:33:33.236Z,993.06
2023-05-21T05:34:33.220Z,993.01
2023-05-21T05:35:33.219Z,993.03
2023-05-21T05:36:33.236Z,992.96
2023-05-21T05:37:33.233Z,992.98
2023-05-21T05:38:33.177Z,992.97
2023-05-21T05:39:33.200Z,992.93
2023-05-21T05:40:33.207Z,993.01
2023-05-21T05:41:33.178Z,993.03
2023-05-21T05:42:33.146Z,993.06
2023-05-21T05:43:33.137Z,993.15
2023-05-21T05:44:33.129Z,993.05
2023-05-21T05:45:33.129Z,993.08
2023-05-21T05:46:33.173Z,993.08
2023-05-21T05:47:33.108Z,993.07
2023-05-21T05:48:33.092Z,993.09
2023-05-21T05:49:33.071Z,993.06
2023-05-21T05:50:33.080Z,993.03
2023-05-21T05:51:33.050Z,993.06
2023-05-21T05:52:33.060Z,993.05
2023-05-21T05:53:33.065Z,993.11
2023-05-21T05:54:33.022Z,993.00
2023-05-21T05:55:33.039Z,993.05
2023-05-21T05:56:33.033Z,993.07
2023-05-21T05:57:33.017Z,993.06
2023-05-21T05:58:32.986Z,993.11
2023-05-21T05:59:32.986Z,993.12
2023-05-21T06:00:32.975Z,993.12
2023-05-21T06:01:32.958Z,993.17
2023-05-21T06:02:33.138Z,993.05
2023-05-21T06:03:33.073Z,993.01
2023-05-21T06:04:32.958Z,993.09
2023-05-21T06:05:32.960Z,993.14
2023-05-21T06:06:32.930Z,993.12
2023-05-21T06:07:32.931Z,993.09
2023-05-21T06:08:32.900Z,993.05
2023-05-21T06:09:32.897Z,993.03
2023-05-21T06:10:32.890Z,993.14
2023-05-21T06:11:32.871Z,993.07
2023-05-21T06:12:32.895Z,993.10
2023-05-21T06:13:32.892Z,993.08
2023-05-21T06:14:32.881Z,993.09
2023-05-21T06:15:32.847Z,993.13
2023-05-21T06:16:32.951Z,993.12
2023-05-21T06:17:32.959Z,993.11
2023-05-21T06:18:32.840Z,993.13
2023-05-21T06:19:32.960Z,993.11
2023-05-21T06:20:32.800Z,993.06
2023-05-21T06:21:32.784Z,993.07
2023-05-21T06:22:32.768Z,993.06
2023-05-21T06:23:32.855Z,993.09
2023-05-21T06:24:32.788Z,993.09
2023-05-21T06:25:32.761Z,993.09
2023-05-21T06:26:32.741Z,993.07
2023-05-21T06:27:32.751Z,993.06
2023-05-21T06:28:32.734Z,993.09
2023-05-21T06:29:32.714Z,993.05
2023-05-21T06:30:32.708Z,993.09
2023-05-21T06:31:32.694Z,993.12
2023-05-21T06:32:32.729Z,993.16
2023-05-21T06:33:32.781Z,993.11
2023-05-21T06:34:32.674Z,993.18
2023-05-21T06:35:32.655Z,993.16
2023-05-21T06:36:32.737Z,993.10
2023-05-21T06:37:32.630Z,993.17
2023-05-21T06:38:32.623Z,993.10
2023-05-21T06:39:32.619Z,993.12
2023-05-21T06:40:32.599Z,993.11
2023-05-21T06:41:32.597Z,993.07
2023-05-21T06:42:32.605Z,993.02
2023-05-21T06:43:32.559Z,993.10
2023-05-21T06:44:32.545Z,993.09
2023-05-21T06:45:32.571Z,993.10
2023-05-21T06:46:32.570Z,993.11
2023-05-21T06:47:32.573Z,992.99
2023-05-21T06:48:32.510Z,993.01
2023-05-21T06:49:32.510Z,993.04
2023-05-21T06:50:32.504Z,993.07
2023-05-21T06:51:32.495Z,993.05
2023-05-21T06:52:32.483Z,993.00
2023-05-21T06:53:32.459Z,993.06
2023-05-21T06:54:32.448Z,993.03
2023-05-21T06:55:32.461Z,993.01
2023-05-21T06:56:32.426Z,993.05
2023-05-21T06:57:32.468Z,993.01
2023-05-21T06:58:32.446Z,993.09
2023-05-21T06:59:32.406Z,993.12
2023-05-21T07:00:32.407Z,993.18
2023-05-21T07:01:32.428Z,993.17
2023-05-21T07:02:32.635Z,993.12
2023-05-21T07:03:32.606Z,993.09
2023-05-21T07:04:32.359Z,993.15
2023-05-21T07:05:32.361Z,993.21
2023-05-21T07:06:32.337Z,993.14
2023-05-21T07:07:32.344Z,993.09
2023-05-21T07:08:33.313Z,993.14
2023-05-21T07:09:32.326Z,993.07
2023-05-21T07:10:32.313Z,993.11
2023-05-21T07:11:32.275Z,993.13
2023-05-21T07:12:32.261Z,993.11
2023-05-21T07:13:32.269Z,993.11
2023-05-21T07:14:32.296Z,993.11
2023-05-21T07:15:32.232Z,993.10
2023-05-21T07:16:32.271Z,993.09
2023-05-21T07:17:32.240Z,993.09
2023-05-21T07:18:32.201Z,993.07
2023-05-21T07:19:32.311Z,993.03
2023-05-21T07:20:32.180Z,993.06
2023-05-21T07:21:32.180Z,993.06
2023-05-21T07:22:32.175Z,992.98
2023-05-21T07:23:32.172Z,992.98
2023-05-21T07:24:32.159Z,992.93
2023-05-21T07:25:32.127Z,992.98
2023-05-21T07:26:32.133Z,992.92
2023-05-21T07:27:32.105Z,992.91
2023-05-21T07:28:32.108Z,992.95
2023-05-21T07:29:32.084Z,992.87
2023-05-21T07:30:32.075Z,992.91
2023-05-21T07:31:32.168Z,992.87
2023-05-21T07:32:32.096Z,992.82
2023-05-21T07:33:32.059Z,992.82
2023-05-21T07:34:32.036Z,992.89
2023-05-21T07:35:32.042Z,992.85
2023-05-21T07:36:32.059Z,992.88
2023-05-21T07:37:32.030Z,992.88
2023-05-21T07:38:32.023Z,992.88
2023-05-21T07:39:31.995Z,992.80
2023-05-21T07:40:31.989Z,992.90
2023-05-21T07:41:31.968Z,992.96
2023-05-21T07:42:31.961Z,992.96
2023-05-21T07:43:32.030Z,992.87
2023-05-21T07:44:31.949Z,992.90
2023-05-21T07:45:31.953Z,992.96
2023-05-21T07:46:31.974Z,992.90
2023-05-21T07:47:31.954Z,992.99
2023-05-21T07:48:33.604Z,993.00
2023-05-21T07:49:31.931Z,992.97
2023-05-21T07:50:31.929Z,992.91
2023-05-21T07:51:31.912Z,992.86
2023-05-21T07:52:31.883Z,992.84
2023-05-21T07:53:31.848Z,992.81
2023-05-21T07:54:31.837Z,992.78
2023-05-21T07:55:31.850Z,992.76
2023-05-21T07:56:31.826Z,992.82
2023-05-21T07:57:31.822Z,992.82
2023-05-21T07:58:31.802Z,992.80
2023-05-21T07:59:31.788Z,992.79
2023-05-21T08:00:31.785Z,992.85
2023-05-21T08:01:31.793Z,992.79
2023-05-21T08:02:31.881Z,992.81
2023-05-21T08:03:31.794Z,992.80
2023-05-21T08:04:31.844Z,992.78
2023-05-21T08:05:31.718Z,992.84
2023-05-21T08:06:31.737Z,992.82
2023-05-21T08:07:31.708Z,992.83
2023-05-21T08:08:31.700Z,992.88
2023-05-21T08:09:31.691Z,992.87
2023-05-21T08:10:31.702Z,992.79
2023-05-21T08:11:31.690Z,992.81
2023-05-21T08:12:31.665Z,992.75
2023-05-21T08:13:31.665Z,992.74
2023-05-21T08:14:31.647Z,992.78
2023-05-21T08:15:31.665Z,992.82
2023-05-21T08:16:31.650Z,992.84
2023-05-21T08:17:31.667Z,992.83
2023-05-21T08:18:31.615Z,992.80
2023-05-21T08:19:31.650Z,992.81
2023-05-21T08:20:31.588Z,992.80
2023-05-21T08:21:31.572Z,992.83
2023-05-21T08:22:31.563Z,992.79
2023-05-21T08:23:31.592Z,992.86
2023-05-21T08:24:31.565Z,992.88
2023-05-21T08:25:31.556Z,992.80
2023-05-21T08:26:31.525Z,992.84
2023-05-21T08:27:31.520Z,992.80
2023-05-21T08:28:31.510Z,992.78
2023-05-21T08:29:31.515Z,992.84
2023-05-21T08:30:31.495Z,992.78
2023-05-21T08:31:31.506Z,992.80
2023-05-21T08:32:31.490Z,992.75
2023-05-21T08:33:31.458Z,992.80
2023-05-21T08:35:47.932Z,992.75
2023-05-21T08:36:47.933Z,992.74
2023-05-21T08:37:47.929Z,992.78
2023-05-21T08:38:47.936Z,992.76
2023-05-21T08:39:47.927Z,992.78
2023-05-21T08:40:48.012Z,992.77
2023-05-21T08:41:47.893Z,992.80
2023-05-21T08:42:47.887Z,992.79
2023-05-21T08:43:50.153Z,992.82
2023-05-21T08:44:47.860Z,992.87
2023-05-21T08:45:49.011Z,992.84
2023-05-21T08:46:48.966Z,992.83
2023-05-21T08:47:49.054Z,992.81
2023-05-21T08:48:48.946Z,992.85
2023-05-21T08:49:48.933Z,992.82
2023-05-21T08:50:48.922Z,992.73
2023-05-21T08:51:48.908Z,992.79
2023-05-21T08:52:48.943Z,992.83
2023-05-21T08:53:48.886Z,992.76
2023-05-21T08:54:48.892Z,992.82
2023-05-21T08:55:50.753Z,992.78
2023-05-21T08:56:48.951Z,992.76
2023-05-21T08:57:48.883Z,992.81
2023-05-21T08:58:48.869Z,992.74
2023-05-21T08:59:48.836Z,992.74
2023-05-21T09:00:48.881Z,992.76
2023-05-21T09:01:48.952Z,992.76
2023-05-21T09:02:48.871Z,992.72
2023-05-21T09:03:48.839Z,992.75
2023-05-21T09:04:48.785Z,992.72
2023-05-21T09:05:48.798Z,992.78
2023-05-21T09:06:48.830Z,992.74
2023-05-21T09:07:50.397Z,992.64
2023-05-21T09:08:48.753Z,992.68
2023-05-21T09:09:48.731Z,992.61
2023-05-21T09:10:48.723Z,992.59
2023-05-21T09:11:48.769Z,992.61
2023-05-21T09:12:48.714Z,992.60
2023-05-21T09:13:48.705Z,992.58
2023-05-21T09:14:48.706Z,992.59
2023-05-21T09:15:48.701Z,992.61
2023-05-21T09:16:48.741Z,992.59
2023-05-21T09:17:48.710Z,992.66
2023-05-21T09:18:48.695Z,992.62
2023-05-21T09:19:48.645Z,992.69
2023-05-21T09:20:48.663Z,992.62
2023-05-21T09:21:48.635Z,992.59
2023-05-21T09:22:48.614Z,992.60
2023-05-21T09:23:48.605Z,992.63
2023-05-21T09:24:48.600Z,992.61
2023-05-21T09:25:48.618Z,992.62
2023-05-21T09:26:48.575Z,992.64
2023-05-21T09:27:48.593Z,992.59
2023-05-21T09:28:48.554Z,992.60
2023-05-21T09:29:48.556Z,992.65
2023-05-21T09:30:48.556Z,992.57
2023-05-21T09:31:48.632Z,992.58
2023-05-21T09:32:48.532Z,992.64
2023-05-21T09:33:48.496Z,992.62
2023-05-21T09:34:48.497Z,992.62
2023-05-21T09:35:48.512Z,992.69
2023-05-21T09:36:48.491Z,992.68
2023-05-21T09:37:48.464Z,992.65
2023-05-21T09:38:48.471Z,992.54
2023-05-21T09:39:48.486Z,992.63
2023-05-21T09:40:48.448Z,992.63
2023-05-21T09:41:48.462Z,992.58
2023-05-21T09:42:48.418Z,992.67
2023-05-21T09:43:48.410Z,992.57
2023-05-21T09:44:48.428Z,992.63
2023-05-21T09:45:48.406Z,992.63
2023-05-21T09:46:48.449Z,992.63
2023-05-21T09:47:48.387Z,992.57
2023-05-21T09:48:48.411Z,992.64
2023-05-21T09:49:48.366Z,992.64
2023-05-21T09:50:48.382Z,992.61
2023-05-21T09:51:48.338Z,992.54
2023-05-21T09:52:48.330Z,992.60
2023-05-21T09:53:48.342Z,992.57
2023-05-21T09:54:48.335Z,992.63
2023-05-21T09:55:48.289Z,992.62
2023-05-21T09:56:48.281Z,992.62
2023-05-21T09:57:50.614Z,992.62
2023-05-21T09:58:48.284Z,992.59
2023-05-21T09:59:48.273Z,992.57
2023-05-21T10:00:48.261Z,992.63
2023-05-21T10:01:48.293Z,992.60
2023-05-21T10:02:48.333Z,992.64
2023-05-21T10:03:50.515Z,992.59
2023-05-21T10:04:49.306Z,992.60
2023-05-21T10:05:48.190Z,992.58
2023-05-21T10:06:48.195Z,992.54
2023-05-21T10:07:48.230Z,992.54
2023-05-21T10:08:48.165Z,992.61
2023-05-21T10:09:48.156Z,992.60
2023-05-21T10:10:48.153Z,992.55
2023-05-21T10:11:49.156Z,992.51
2023-05-21T10:12:48.181Z,992.47
2023-05-21T10:13:48.111Z,992.48
2023-05-21T10:14:48.122Z,992.46
2023-05-21T10:15:50.201Z,992.44
2023-05-21T10:16:48.266Z,992.40
2023-05-21T10:17:48.127Z,992.35
2023-05-21T10:18:49.092Z,992.36
2023-05-21T10:19:48.063Z,992.43
2023-05-21T10:20:48.051Z,992.38
2023-05-21T10:21:48.106Z,992.38
2023-05-21T10:22:48.040Z,992.39
2023-05-21T10:23:48.017Z,992.32
2023-05-21T10:24:48.022Z,992.39
2023-05-21T10:25:48.006Z,992.41
2023-05-21T10:26:48.021Z,992.37
2023-05-21T10:27:47.972Z,992.33
2023-05-21T10:28:47.961Z,992.30
2023-05-21T10:29:47.955Z,992.33
2023-05-21T10:30:47.980Z,992.29
2023-05-21T10:31:47.936Z,992.28
2023-05-21T10:32:48.129Z,992.27
2023-05-21T10:33:47.929Z,992.29
2023-05-21T10:34:47.912Z,992.32
2023-05-21T10:35:47.927Z,992.27
2023-05-21T10:36:47.891Z,992.26
2023-05-21T10:37:47.887Z,992.27
2023-05-21T10:38:47.868Z,992.30
2023-05-21T10:39:47.979Z,992.27
2023-05-21T10:40:47.891Z,992.29
2023-05-21T10:41:47.854Z,992.29
2023-05-21T10:42:47.823Z,992.23
2023-05-21T10:43:47.816Z,992.20
2023-05-21T10:44:47.824Z,992.23
2023-05-21T10:45:47.838Z,992.23
2023-05-21T10:46:47.785Z,992.27
2023-05-21T10:47:47.850Z,992.24
2023-05-21T10:48:47.872Z,992.19
2023-05-21T10:49:47.779Z,992.23
2023-05-21T10:50:47.748Z,992.24
2023-05-21T10:51:47.744Z,992.24
2023-05-21T10:52:47.740Z,992.22
2023-05-21T10:53:47.790Z,992.15
2023-05-21T10:54:47.730Z,992.09
2023-05-21T10:55:47.705Z,992.08
2023-05-21T10:56:47.702Z,992.11
2023-05-21T10:57:47.681Z,992.20
2023-05-21T10:58:47.699Z,992.11
2023-05-21T10:59:47.693Z,992.16
2023-05-21T11:00:47.708Z,992.21
2023-05-21T11:01:47.777Z,992.18
2023-05-21T11:02:47.738Z,992.11
2023-05-21T11:03:47.705Z,992.16
2023-05-21T11:04:47.610Z,992.09
2023-05-21T11:05:47.601Z,992.08
2023-05-21T11:06:47.604Z,992.08
2023-05-21T11:07:47.636Z,992.05
2023-05-21T11:08:47.633Z,992.02
2023-05-21T11:09:47.562Z,992.13
2023-05-21T11:10:47.558Z,992.09
2023-05-21T11:11:47.544Z,992.05
2023-05-21T11:12:47.591Z,992.10
2023-05-21T11:13:47.538Z,992.05
2023-05-21T11:14:47.533Z,992.10
2023-05-21T11:15:47.512Z,992.07
2023-05-21T11:16:47.581Z,992.05
2023-05-21T11:17:47.539Z,992.08
2023-05-21T11:18:47.599Z,992.03
2023-05-21T11:19:47.693Z,992.11
2023-05-21T11:20:47.528Z,992.10
2023-05-21T11:21:47.476Z,992.06
2023-05-21T11:22:47.459Z,992.06
2023-05-21T11:23:47.449Z,992.12
2023-05-21T11:24:48.825Z,992.08
2023-05-21T11:25:47.414Z,992.08
2023-05-21T11:26:47.413Z,992.00
2023-05-21T11:27:47.394Z,992.06
2023-05-21T11:28:47.388Z,992.12
2023-05-21T11:29:47.379Z,992.05
2023-05-21T11:30:47.387Z,992.08
2023-05-21T11:31:47.404Z,992.13
2023-05-21T11:32:47.380Z,992.00
2023-05-21T11:33:47.340Z,992.03
2023-05-21T11:34:47.326Z,992.00
2023-05-21T11:35:47.340Z,991.95
2023-05-21T11:36:47.310Z,991.97
2023-05-21T11:37:47.295Z,991.99
2023-05-21T11:38:47.287Z,991.89
2023-05-21T11:39:47.276Z,991.93
2023-05-21T11:40:47.290Z,991.93
2023-05-21T11:41:47.257Z,991.85
2023-05-21T11:42:47.254Z,991.83
2023-05-21T11:43:47.264Z,991.81
2023-05-21T11:44:47.227Z,991.84
2023-05-21T11:45:47.303Z,991.81
2023-05-21T11:46:47.240Z,991.77
2023-05-21T11:47:47.262Z,991.79
2023-05-21T11:48:47.197Z,991.80
2023-05-21T11:49:47.215Z,991.87
2023-05-21T11:50:47.171Z,991.77
2023-05-21T11:51:47.168Z,991.82
2023-05-21T11:52:47.158Z,991.77
2023-05-21T11:53:47.147Z,991.78
2023-05-21T11:54:47.166Z,991.79
2023-05-21T11:55:47.131Z,991.80
2023-05-21T11:56:47.124Z,991.81
2023-05-21T11:57:47.125Z,991.72
2023-05-21T11:58:47.132Z,991.70
2023-05-21T11:59:47.110Z,991.72
2023-05-21T12:00:47.080Z,991.76
2023-05-21T12:01:47.070Z,991.80
2023-05-21T12:02:47.161Z,991.80
2023-05-21T12:03:47.249Z,991.78
2023-05-21T12:04:47.033Z,991.78
2023-05-21T12:05:47.103Z,991.78
2023-05-21T12:06:47.038Z,991.79
2023-05-21T12:07:47.009Z,991.76
2023-05-21T12:08:47.119Z,991.73
2023-05-21T12:09:47.012Z,991.67
2023-05-21T12:10:47.006Z,991.63
2023-05-21T12:11:46.980Z,991.68
2023-05-21T12:12:55.497Z,991.79
2023-05-21T12:13:49.024Z,991.65
2023-05-21T12:14:46.936Z,991.76
2023-05-21T12:15:46.953Z,991.73
2023-05-21T12:16:47.000Z,991.72
2023-05-21T12:17:46.956Z,991.72
2023-05-21T12:18:46.930Z,991.65
2023-05-21T12:19:46.908Z,991.64
2023-05-21T12:20:46.912Z,991.61
2023-05-21T12:21:46.869Z,991.65
2023-05-21T12:22:46.892Z,991.64
2023-05-21T12:23:46.867Z,991.71
2023-05-21T12:24:46.948Z,991.70
2023-05-21T12:25:46.839Z,991.61
2023-05-21T12:26:46.847Z,991.70
2023-05-21T12:27:46.845Z,991.69
2023-05-21T12:28:46.826Z,991.71
2023-05-21T12:29:46.813Z,991.71